createdAt,value
2023-07-03T00:00:49.796Z,6.00
2023-07-03T00:03:16.359Z,8.25
2023-07-03T00:05:44.445Z,9.60
2023-07-03T00:08:11.515Z,8.25
2023-07-03T00:10:38.065Z,9.00
2023-07-03T00:13:04.689Z,8.80
2023-07-03T00:15:31.304Z,8.00
2023-07-03T00:17:57.936Z,10.00
2023-07-03T00:20:24.436Z,12.00
2023-07-03T00:22:52.626Z,10.00
2023-07-03T00:25:19.313Z,13.00
2023-07-03T00:27:46.062Z,11.00
2023-07-03T00:30:12.776Z,10.40
2023-07-03T00:32:39.478Z,10.00
2023-07-03T00:35:07.884Z,12.40
2023-07-03T00:37:34.861Z,10.75
2023-07-03T00:40:01.316Z,10.00
2023-07-03T00:42:28.861Z,10.20
2023-07-03T00:44:55.389Z,11.00
2023-07-03T00:47:22.560Z,11.00
2023-07-03T00:49:49.666Z,12.20
2023-07-03T00:52:16.339Z,18.25
2023-07-03T00:54:42.845Z,10.00
2023-07-03T00:57:13.305Z,12.40
2023-07-03T00:59:39.946Z,14.00
2023-07-03T01:02:15.005Z,17.60
2023-07-03T01:04:45.496Z,14.00
2023-07-03T01:07:16.199Z,13.75
2023-07-03T01:09:46.025Z,12.25
2023-07-03T01:12:12.923Z,10.60
2023-07-03T01:14:40.754Z,18.40
2023-07-03T01:17:11.018Z,14.00
2023-07-03T01:19:38.613Z,14.50
2023-07-03T01:22:09.906Z,18.60
2023-07-03T01:24:40.102Z,12.00
2023-07-03T01:27:08.332Z,18.00
2023-07-03T01:29:35.599Z,13.00
2023-07-03T01:32:04.173Z,13.75
2023-07-03T01:34:31.179Z,13.80
2023-07-03T01:36:58.561Z,18.00
2023-07-03T01:39:25.854Z,15.60
2023-07-03T01:41:52.582Z,14.40
2023-07-03T01:44:20.332Z,15.40
2023-07-03T01:46:46.817Z,11.40
2023-07-03T01:49:14.144Z,14.00
2023-07-03T01:52:02.305Z,13.80
2023-07-03T01:54:32.293Z,12.60
2023-07-03T01:57:00.601Z,12.50
2023-07-03T01:59:30.845Z,18.75
2023-07-03T02:02:08.787Z,15.00
2023-07-03T02:04:38.858Z,15.00
2023-07-03T02:07:06.958Z,13.40
2023-07-03T02:09:33.610Z,13.25
2023-07-03T02:12:00.223Z,13.25
2023-07-03T02:14:26.688Z,15.60
2023-07-03T02:16:54.295Z,15.60
2023-07-03T02:19:29.886Z,12.20
2023-07-03T02:21:57.429Z,15.25
2023-07-03T02:24:24.387Z,14.00
2023-07-03T02:26:51.878Z,15.00
2023-07-03T02:29:18.472Z,13.50
2023-07-03T02:31:44.947Z,13.50
2023-07-03T02:34:11.689Z,13.80
2023-07-03T02:36:38.709Z,19.20
2023-07-03T02:39:08.294Z,16.00
2023-07-03T02:41:35.018Z,15.50
2023-07-03T02:44:01.570Z,15.00
2023-07-03T02:46:28.067Z,19.50
2023-07-03T02:48:54.992Z,13.67
2023-07-03T02:51:21.596Z,14.40
2023-07-03T02:53:48.516Z,14.20
2023-07-03T02:56:15.221Z,13.00
2023-07-03T02:58:41.966Z,15.00
2023-07-03T03:01:08.498Z,14.60
2023-07-03T03:03:35.362Z,19.00
2023-07-03T03:06:01.988Z,14.20
2023-07-03T03:08:28.474Z,16.20
2023-07-03T03:10:54.990Z,13.50
2023-07-03T03:13:21.529Z,12.25
2023-07-03T03:15:48.174Z,14.25
2023-07-03T03:18:14.785Z,12.00
2023-07-03T03:20:41.314Z,16.00
2023-07-03T03:23:08.043Z,14.20
2023-07-03T03:25:34.721Z,18.75
2023-07-03T03:28:01.220Z,12.75
2023-07-03T03:30:27.768Z,13.80
2023-07-03T03:32:54.390Z,14.00
2023-07-03T03:35:20.922Z,16.60
2023-07-03T03:37:47.385Z,16.00
2023-07-03T03:40:14.122Z,14.00
2023-07-03T03:42:40.855Z,13.75
2023-07-03T03:45:07.569Z,14.00
2023-07-03T03:47:34.238Z,19.00
2023-07-03T03:50:01.867Z,18.75
2023-07-03T03:52:28.419Z,15.20
2023-07-03T03:54:55.041Z,15.00
2023-07-03T03:57:21.504Z,15.40
2023-07-03T03:59:48.004Z,15.80
2023-07-03T04:02:14.487Z,14.40
2023-07-03T04:04:40.985Z,14.80
2023-07-03T04:07:07.703Z,17.40
2023-07-03T04:09:42.866Z,22.50
2023-07-03T04:12:09.464Z,19.20
2023-07-03T04:14:35.939Z,15.75
2023-07-03T04:17:02.625Z,14.50
2023-07-03T04:19:29.848Z,15.50
2023-07-03T04:21:56.395Z,18.80
2023-07-03T04:24:22.874Z,18.50
2023-07-03T04:26:49.412Z,14.50
2023-07-03T04:29:16.022Z,14.20
2023-07-03T04:31:42.575Z,14.00
2023-07-03T04:34:09.129Z,16.40
2023-07-03T04:36:35.679Z,14.80
2023-07-03T04:39:02.275Z,21.00
2023-07-03T04:41:29.135Z,16.75
2023-07-03T04:43:58.386Z,18.75
2023-07-03T04:46:28.193Z,19.00
2023-07-03T04:49:01.651Z,14.50
2023-07-03T04:51:32.003Z,20.75
2023-07-03T04:53:59.850Z,19.80
2023-07-03T04:56:26.863Z,19.40
2023-07-03T04:58:53.419Z,17.60
2023-07-03T05:01:20.013Z,14.20
2023-07-03T05:03:46.530Z,15.00
2023-07-03T05:06:13.035Z,18.60
2023-07-03T05:08:39.660Z,20.20
2023-07-03T05:11:06.217Z,14.00
2023-07-03T05:13:32.747Z,15.20
2023-07-03T05:15:59.349Z,16.00
2023-07-03T05:18:26.069Z,20.00
2023-07-03T05:20:52.966Z,18.00
2023-07-03T05:23:19.486Z,13.00
2023-07-03T05:25:49.121Z,15.50
2023-07-03T05:28:16.055Z,23.75
2023-07-03T05:30:42.656Z,17.25
2023-07-03T05:33:12.095Z,16.60
2023-07-03T05:35:48.647Z,15.40
2023-07-03T05:38:16.973Z,22.00
2023-07-03T05:40:43.435Z,18.20
2023-07-03T05:43:09.944Z,18.80
2023-07-03T05:45:36.555Z,17.20
2023-07-03T05:48:03.533Z,17.20
2023-07-03T05:50:30.038Z,19.00
2023-07-03T05:52:56.483Z,17.00
2023-07-03T05:55:22.976Z,14.00
2023-07-03T05:57:49.645Z,14.20
2023-07-03T06:00:16.341Z,15.40
2023-07-03T06:02:46.489Z,17.40
2023-07-03T06:05:13.439Z,17.00
2023-07-03T06:07:40.162Z,18.00
2023-07-03T06:10:07.570Z,17.00
2023-07-03T06:12:34.624Z,18.40
2023-07-03T06:15:01.907Z,16.80
2023-07-03T06:17:29.378Z,11.60
2023-07-03T06:19:56.384Z,14.75
2023-07-03T06:22:23.357Z,17.00
2023-07-03T06:24:50.105Z,18.75
2023-07-03T06:27:16.768Z,18.50
2023-07-03T06:29:43.618Z,17.50
2023-07-03T06:32:11.007Z,14.60
2023-07-03T06:34:38.098Z,15.20
2023-07-03T06:37:06.634Z,22.00
2023-07-03T06:39:33.921Z,19.25
2023-07-03T06:42:00.674Z,16.80
2023-07-03T06:44:27.833Z,14.60
2023-07-03T06:46:54.359Z,14.00
2023-07-03T06:49:23.686Z,15.00
2023-07-03T06:51:50.295Z,17.75
2023-07-03T06:54:16.947Z,18.20
2023-07-03T06:56:43.440Z,16.20
2023-07-03T06:59:09.918Z,21.00
2023-07-03T07:01:37.913Z,14.00
2023-07-03T07:04:04.638Z,15.40
2023-07-03T07:06:31.752Z,13.20
2023-07-03T07:08:59.722Z,16.25
2023-07-03T07:11:27.559Z,15.50
2023-07-03T07:13:57.366Z,13.80
2023-07-03T07:16:25.697Z,13.40
2023-07-03T07:18:53.320Z,13.00
2023-07-03T07:21:19.881Z,16.00
2023-07-03T07:23:53.706Z,14.00
2023-07-03T07:26:20.553Z,13.00
2023-07-03T07:28:47.157Z,12.60
2023-07-03T07:31:20.911Z,13.00
2023-07-03T07:33:47.629Z,14.20
2023-07-03T07:36:18.790Z,19.00
2023-07-03T07:38:45.295Z,14.00
2023-07-03T07:41:12.438Z,20.00
2023-07-03T07:43:38.895Z,14.75
2023-07-03T07:46:05.644Z,18.00
2023-07-03T07:48:34.291Z,13.00
2023-07-03T07:51:01.397Z,14.50
2023-07-03T07:53:29.957Z,13.80
2023-07-03T07:55:56.699Z,14.00
2023-07-03T07:58:24.380Z,16.50
2023-07-03T08:00:52.635Z,13.20
2023-07-03T08:03:19.192Z,15.25
2023-07-03T08:05:45.741Z,13.60
2023-07-03T08:08:12.339Z,13.00
2023-07-03T08:10:38.915Z,13.00
2023-07-03T08:13:05.596Z,14.00
2023-07-03T08:15:32.067Z,19.60
2023-07-03T08:17:58.637Z,13.00
2023-07-03T08:20:25.134Z,15.60
2023-07-03T08:22:51.643Z,19.40
2023-07-03T08:25:18.140Z,10.60
2023-07-03T08:27:46.016Z,14.40
2023-07-03T08:30:12.824Z,14.20
2023-07-03T08:32:39.587Z,11.00
2023-07-03T08:37:36.515Z,14.75
2023-07-03T08:40:06.395Z,13.40
2023-07-03T08:42:35.508Z,11.20
2023-07-03T08:45:02.930Z,9.50
2023-07-03T08:47:31.029Z,14.50
2023-07-03T08:49:58.912Z,10.00
2023-07-03T08:52:32.035Z,9.60
2023-07-03T08:55:00.760Z,15.00
2023-07-03T08:57:27.446Z,13.00
2023-07-03T08:59:54.724Z,17.00
2023-07-03T09:02:33.169Z,13.00
2023-07-03T09:05:14.621Z,14.67
2023-07-03T09:07:47.544Z,13.00
2023-07-03T09:10:17.262Z,11.80
2023-07-03T09:12:53.374Z,13.80
2023-07-03T09:15:25.083Z,12.40
2023-07-03T09:17:53.241Z,13.00
2023-07-03T09:20:19.944Z,16.50
2023-07-03T09:22:46.427Z,15.40
2023-07-03T09:25:17.945Z,11.00
2023-07-03T09:27:47.272Z,18.25
2023-07-03T09:30:15.754Z,10.50
2023-07-03T09:32:42.404Z,15.75
2023-07-03T09:35:15.028Z,10.50
2023-07-03T09:37:42.942Z,10.75
2023-07-03T09:40:14.486Z,17.80
2023-07-03T09:42:41.627Z,15.80
2023-07-03T09:45:23.726Z,9.60
2023-07-03T09:47:51.834Z,11.00
2023-07-03T09:50:23.903Z,12.75
2023-07-03T09:55:26.446Z,16.00
2023-07-03T09:57:52.999Z,10.50
2023-07-03T10:00:22.021Z,11.40
2023-07-03T10:08:04.680Z,7.40
2023-07-03T10:13:22.702Z,12.40
2023-07-03T10:15:49.398Z,11.50
2023-07-03T10:18:20.243Z,10.00
2023-07-03T10:20:47.677Z,8.40
2023-07-03T10:23:23.322Z,16.60
2023-07-03T10:25:55.900Z,11.00
2023-07-03T10:28:25.022Z,10.50
2023-07-03T10:30:55.011Z,11.00
2023-07-03T10:33:25.997Z,13.75
2023-07-03T10:35:53.222Z,10.00
2023-07-03T10:38:33.571Z,9.50
2023-07-03T10:41:05.117Z,13.60
2023-07-03T10:43:33.985Z,10.80
2023-07-03T10:46:01.398Z,11.00
2023-07-03T10:48:29.818Z,9.40
2023-07-03T10:51:07.760Z,12.75
2023-07-03T10:53:34.267Z,13.20
2023-07-03T10:56:07.256Z,10.00
2023-07-03T10:58:33.741Z,7.75
2023-07-03T11:01:00.258Z,10.50
2023-07-03T11:03:29.884Z,12.25
2023-07-03T11:06:02.449Z,14.00
2023-07-03T11:08:34.735Z,13.50
2023-07-03T11:11:36.879Z,10.80
2023-07-03T11:14:05.937Z,11.75
2023-07-03T11:16:41.526Z,12.50
2023-07-03T11:24:25.868Z,13.40
2023-07-03T11:29:25.172Z,9.00
2023-07-03T11:31:52.230Z,12.40
2023-07-03T11:44:42.238Z,10.40
2023-07-03T11:47:11.671Z,14.60
2023-07-03T11:49:45.428Z,12.20
2023-07-03T11:52:13.544Z,12.00
2023-07-03T11:54:40.492Z,10.00
2023-07-03T11:57:08.867Z,14.00
2023-07-03T11:59:37.398Z,14.00
2023-07-03T12:02:12.749Z,11.00
2023-07-03T12:04:49.891Z,13.60
2023-07-03T12:07:20.237Z,13.00
2023-07-03T12:09:50.433Z,14.75
2023-07-03T12:12:21.192Z,12.50
2023-07-03T12:14:55.423Z,11.40
2023-07-03T12:17:30.919Z,12.00
2023-07-03T12:20:06.845Z,10.20
2023-07-03T12:22:49.206Z,12.40
2023-07-03T12:25:21.219Z,13.00
2023-07-03T12:27:48.626Z,15.00
2023-07-03T12:30:27.632Z,14.00
2023-07-03T12:32:54.859Z,10.40
2023-07-03T12:35:25.581Z,13.40
2023-07-03T12:37:53.527Z,12.60
2023-07-03T12:40:21.005Z,10.40
2023-07-03T12:42:48.518Z,12.40
2023-07-03T12:45:25.490Z,12.00
2023-07-03T12:48:04.195Z,8.40
2023-07-03T12:50:30.835Z,15.00
2023-07-03T12:52:58.211Z,13.00
2023-07-03T12:55:26.007Z,8.60
2023-07-03T12:57:53.409Z,11.40
2023-07-03T13:00:24.739Z,11.40
2023-07-03T13:02:51.286Z,12.40
2023-07-03T13:05:23.837Z,11.00
2023-07-03T13:07:51.028Z,9.00
2023-07-03T13:10:21.208Z,14.00
2023-07-03T13:13:02.941Z,10.50
2023-07-03T13:15:37.951Z,11.60
2023-07-03T13:18:07.337Z,14.00
2023-07-03T13:20:34.422Z,9.00
2023-07-03T13:23:02.229Z,11.00
2023-07-03T13:25:35.100Z,16.00
2023-07-03T13:28:03.705Z,9.00
2023-07-03T13:30:35.447Z,11.00
2023-07-03T13:33:05.219Z,10.50
2023-07-03T13:35:34.361Z,10.00
2023-07-03T13:38:19.607Z,14.50
2023-07-03T13:40:47.043Z,12.00
2023-07-03T13:43:13.527Z,11.20
2023-07-03T13:45:40.075Z,11.67
2023-07-03T13:48:07.251Z,10.75
2023-07-03T13:50:33.860Z,8.00
2023-07-03T13:53:00.374Z,12.00
2023-07-03T13:55:29.008Z,9.50
2023-07-03T13:57:55.553Z,15.50
2023-07-03T14:00:22.143Z,13.00
2023-07-03T14:02:49.413Z,9.00
2023-07-03T14:05:19.951Z,12.80
2023-07-03T14:07:46.931Z,12.50
2023-07-03T14:10:13.405Z,16.20
2023-07-03T14:12:40.234Z,13.00
2023-07-03T14:15:26.573Z,11.80
2023-07-03T14:17:54.177Z,11.00
2023-07-03T14:20:21.045Z,15.00
2023-07-03T14:22:49.563Z,10.00
2023-07-03T14:25:17.793Z,12.20
2023-07-03T14:27:44.410Z,10.60
2023-07-03T14:30:11.696Z,9.20
2023-07-03T14:32:51.483Z,11.75
2023-07-03T14:35:22.004Z,8.40
2023-07-03T14:37:48.627Z,9.00
2023-07-03T14:40:16.996Z,10.00
2023-07-03T14:42:44.052Z,11.40
2023-07-03T14:45:10.718Z,16.25
2023-07-03T14:47:37.241Z,11.00
2023-07-03T14:50:05.062Z,12.60
2023-07-03T14:52:35.352Z,11.00
2023-07-03T14:55:01.831Z,11.40
2023-07-03T14:57:28.332Z,13.00
2023-07-03T14:59:54.813Z,15.20
2023-07-03T15:02:21.456Z,12.00
2023-07-03T15:04:48.074Z,11.00
2023-07-03T15:07:14.593Z,15.50
2023-07-03T15:09:41.211Z,8.00
2023-07-03T15:12:09.599Z,13.40
2023-07-03T15:14:36.821Z,13.50
2023-07-03T15:17:04.764Z,12.00
2023-07-03T15:19:31.367Z,13.20
2023-07-03T15:21:58.110Z,11.20
2023-07-03T15:24:24.757Z,14.75
2023-07-03T15:26:51.506Z,10.75
2023-07-03T15:29:18.217Z,10.20
2023-07-03T15:31:44.854Z,9.80
2023-07-03T15:34:11.389Z,11.75
2023-07-03T15:36:38.384Z,9.00
2023-07-03T15:39:04.829Z,9.25
2023-07-03T15:41:31.492Z,11.75
2023-07-03T15:44:03.068Z,7.00
2023-07-03T15:46:30.731Z,13.00
2023-07-03T15:48:57.393Z,11.60
2023-07-03T15:51:23.896Z,16.50
2023-07-03T15:53:50.510Z,10.50
2023-07-03T15:56:18.204Z,11.80
2023-07-03T15:58:46.564Z,10.20
2023-07-03T16:01:14.325Z,8.80
2023-07-03T16:03:41.119Z,12.00
2023-07-03T16:06:08.606Z,10.50
2023-07-03T16:08:35.882Z,11.80
2023-07-03T16:11:09.429Z,14.20
2023-07-03T16:13:39.298Z,10.40
2023-07-03T16:16:12.518Z,8.60
2023-07-03T16:18:39.117Z,15.20
2023-07-03T16:21:07.935Z,10.75
2023-07-03T16:23:34.431Z,9.00
2023-07-03T16:26:03.664Z,10.80
2023-07-03T16:28:32.456Z,9.50
2023-07-03T16:31:15.469Z,10.60
2023-07-03T16:33:43.356Z,9.00
2023-07-03T16:36:14.261Z,8.40
2023-07-03T16:38:45.254Z,11.00
2023-07-03T16:41:11.740Z,8.25
2023-07-03T16:43:39.192Z,7.50
2023-07-03T16:46:06.673Z,9.00
2023-07-03T16:48:34.061Z,9.75
2023-07-03T16:51:01.266Z,9.60
2023-07-03T16:53:28.862Z,7.00
2023-07-03T16:56:04.816Z,12.25
2023-07-03T16:58:31.593Z,10.20
2023-07-03T17:01:02.541Z,8.00
2023-07-03T17:03:29.188Z,9.80
2023-07-03T17:05:55.744Z,9.80
2023-07-03T17:08:22.285Z,7.20
2023-07-03T17:10:48.824Z,10.20
2023-07-03T17:13:15.386Z,7.20
2023-07-03T17:15:41.831Z,8.50
2023-07-03T17:18:08.866Z,10.20
2023-07-03T17:20:35.345Z,10.00
2023-07-03T17:23:02.310Z,7.80
2023-07-03T17:25:28.916Z,6.00
2023-07-03T17:27:55.424Z,9.00
2023-07-03T17:30:21.908Z,12.00
2023-07-03T17:32:48.452Z,10.00
2023-07-03T17:35:16.022Z,7.80
2023-07-03T17:37:42.801Z,7.00
2023-07-03T17:40:09.624Z,9.20
2023-07-03T17:42:36.425Z,9.00
2023-07-03T17:45:02.912Z,12.40
2023-07-03T17:47:29.469Z,8.00
2023-07-03T17:49:56.713Z,7.00
2023-07-03T17:52:23.616Z,5.00
2023-07-03T17:54:50.086Z,7.00
2023-07-03T17:57:16.606Z,9.00
2023-07-03T17:59:43.105Z,8.60
2023-07-03T18:02:12.830Z,9.00
2023-07-03T18:04:39.676Z,11.60
2023-07-03T18:07:06.488Z,7.00
2023-07-03T18:09:33.113Z,7.00
2023-07-03T18:11:59.707Z,8.75
2023-07-03T18:14:26.463Z,8.60
2023-07-03T18:16:53.042Z,8.00
2023-07-03T18:19:19.630Z,8.60
2023-07-03T18:21:46.113Z,7.00
2023-07-03T18:24:12.572Z,8.50
2023-07-03T18:26:39.149Z,10.00
2023-07-03T18:29:05.940Z,11.00
2023-07-03T18:31:32.812Z,10.00
2023-07-03T18:33:59.318Z,10.00
2023-07-03T18:36:26.074Z,11.00
2023-07-03T18:38:52.661Z,13.80
2023-07-03T18:41:20.584Z,11.60
2023-07-03T18:43:47.214Z,13.75
2023-07-03T18:46:14.563Z,11.25
2023-07-03T18:48:41.623Z,8.60
2023-07-03T18:51:14.927Z,8.80
2023-07-03T18:53:41.602Z,9.00
2023-07-03T18:56:08.137Z,7.25
2023-07-03T18:58:34.866Z,10.75
2023-07-03T19:01:01.539Z,12.80
2023-07-03T19:03:28.771Z,9.25
2023-07-03T19:06:00.291Z,11.60
2023-07-03T19:08:28.212Z,7.40
2023-07-03T19:10:55.051Z,11.20
2023-07-03T19:13:21.536Z,7.40
2023-07-03T19:15:48.129Z,9.00
2023-07-03T19:18:15.097Z,8.60
2023-07-03T19:20:41.828Z,8.20
2023-07-03T19:23:08.608Z,9.60
2023-07-03T19:25:35.500Z,6.00
2023-07-03T19:28:02.218Z,11.00
2023-07-03T19:30:28.732Z,6.80
2023-07-03T19:32:55.189Z,6.80
2023-07-03T19:35:21.692Z,9.60
2023-07-03T19:37:48.765Z,7.20
2023-07-03T19:40:15.248Z,12.00
2023-07-03T19:42:41.906Z,6.60
2023-07-03T19:45:09.204Z,9.20
2023-07-03T19:47:36.205Z,9.00
2023-07-03T19:50:03.321Z,8.00
2023-07-03T19:52:30.357Z,11.00
2023-07-03T19:54:59.335Z,6.00
2023-07-03T19:57:25.790Z,8.00
2023-07-03T19:59:53.496Z,8.00
2023-07-03T20:02:19.968Z,7.00
2023-07-03T20:04:46.698Z,7.25
2023-07-03T20:07:13.234Z,8.00
2023-07-03T20:09:40.416Z,6.00
2023-07-03T20:12:07.125Z,8.50
2023-07-03T20:14:33.680Z,10.00
2023-07-03T20:17:00.270Z,7.50
2023-07-03T20:19:26.830Z,5.40
2023-07-03T20:21:53.498Z,7.40
2023-07-03T20:24:20.017Z,5.00
2023-07-03T20:26:46.521Z,7.60
2023-07-03T20:29:13.043Z,7.00
2023-07-03T20:31:39.523Z,5.80
2023-07-03T20:34:06.094Z,7.60
2023-07-03T20:36:34.800Z,5.00
2023-07-03T20:39:03.268Z,5.75
2023-07-03T20:41:29.781Z,6.80
2023-07-03T20:43:56.464Z,9.60
2023-07-03T20:46:25.388Z,5.60
2023-07-03T20:48:55.348Z,12.00
2023-07-03T20:51:23.401Z,7.00
2023-07-03T20:53:53.556Z,7.50
2023-07-03T20:56:21.318Z,7.60
2023-07-03T20:58:48.366Z,9.20
2023-07-03T21:01:16.809Z,5.00
2023-07-03T21:03:47.898Z,7.20
2023-07-03T21:06:15.216Z,8.60
2023-07-03T21:08:42.789Z,8.80
2023-07-03T21:11:16.037Z,7.67
2023-07-03T21:13:43.895Z,6.60
2023-07-03T21:16:11.303Z,7.00
2023-07-03T21:18:38.011Z,6.75
2023-07-03T21:21:14.499Z,9.40
2023-07-03T21:23:41.331Z,7.80
2023-07-03T21:26:10.004Z,6.60
2023-07-03T21:28:36.560Z,5.60
2023-07-03T21:31:03.555Z,5.50
2023-07-03T21:33:31.131Z,8.25
2023-07-03T21:36:14.450Z,6.40
2023-07-03T21:38:41.742Z,7.80
2023-07-03T21:41:09.160Z,6.00
2023-07-03T21:43:35.716Z,7.00
2023-07-03T21:46:02.289Z,7.60
2023-07-03T21:48:29.234Z,8.00
2023-07-03T21:50:55.886Z,8.25
2023-07-03T21:53:22.522Z,5.50
2023-07-03T21:55:49.107Z,6.80
2023-07-03T21:58:15.739Z,6.40
2023-07-03T22:00:42.227Z,5.00
2023-07-03T22:03:08.762Z,6.00
2023-07-03T22:05:35.239Z,5.00
2023-07-03T22:08:01.685Z,6.75
2023-07-03T22:10:28.502Z,7.00
2023-07-03T22:12:56.421Z,5.00
2023-07-03T22:15:22.925Z,5.00
2023-07-03T22:17:49.452Z,7.00
2023-07-03T22:20:16.028Z,4.00
2023-07-03T22:22:42.675Z,7.20
2023-07-03T22:25:09.288Z,6.00
2023-07-03T22:27:35.993Z,6.25
2023-07-03T22:30:02.696Z,5.00
2023-07-03T22:32:30.635Z,5.00
2023-07-03T22:34:57.290Z,7.40
2023-07-03T22:37:23.858Z,5.80
2023-07-03T22:39:50.310Z,5.25
2023-07-03T22:42:16.751Z,6.60
2023-07-03T22:44:43.324Z,6.75
2023-07-03T22:47:09.825Z,4.50
2023-07-03T22:49:36.352Z,7.60
2023-07-03T22:52:02.959Z,5.50
2023-07-03T22:54:29.452Z,5.25
2023-07-03T22:56:55.944Z,7.00
2023-07-03T22:59:22.443Z,3.80
2023-07-03T23:01:52.370Z,4.75
2023-07-03T23:04:18.899Z,6.00
2023-07-03T23:06:46.960Z,6.40
2023-07-03T23:09:13.532Z,6.00
2023-07-03T23:11:42.970Z,4.80
2023-07-03T23:14:09.478Z,4.40
2023-07-03T23:16:36.076Z,3.80
2023-07-03T23:19:02.744Z,5.50
2023-07-03T23:21:29.228Z,8.40
2023-07-03T23:23:56.783Z,3.00
2023-07-03T23:26:25.784Z,5.60
2023-07-03T23:28:52.408Z,3.75
2023-07-03T23:31:19.041Z,5.00
2023-07-03T23:33:51.209Z,6.00
2023-07-03T23:36:18.509Z,5.40
2023-07-03T23:38:45.467Z,6.40
2023-07-03T23:41:12.064Z,2.80
2023-07-03T23:43:39.400Z,2.75
2023-07-03T23:46:09.699Z,5.40
2023-07-03T23:48:36.909Z,4.75
2023-07-03T23:51:04.955Z,5.40
2023-07-03T23:53:35.634Z,4.00
2023-07-03T23:56:03.425Z,4.80
2023-07-03T23:58:30.147Z,4.60
